sensor_id;sensor_type;location;lat;lon;timestamp;temperature;humidity
49503;DHT22;35409;48.776;9.204;2022-11-25T00:00:10;2.00;99.90
49503;DHT22;35409;48.776;9.204;2022-11-25T00:02:40;1.90;99.90
49503;DHT22;35409;48.776;9.204;2022-11-25T00:05:06;1.90;99.90
49503;DHT22;35409;48.776;9.204;2022-11-25T00:07:34;1.90;99.90
49503;DHT22;35409;48.776;9.204;2022-11-25T00:10:00;1.90;99.90
49503;DHT22;35409;48.776;9.204;2022-11-25T00:12:26;1.90;99.90
49503;DHT22;35409;48.776;9.204;2022-11-25T00:14:51;1.90;99.90
49503;DHT22;35409;48.776;9.204;2022-11-25T00:17:17;1.80;99.90
49503;DHT22;35409;48.776;9.204;2022-11-25T00:19:42;1.70;99.90
49503;DHT22;35409;48.776;9.204;2022-11-25T00:22:08;1.70;99.90
49503;DHT22;35409;48.776;9.204;2022-11-25T00:24:33;1.60;99.90
49503;DHT22;35409;48.776;9.204;2022-11-25T00:26:59;1.50;99.90
49503;DHT22;35409;48.776;9.204;2022-11-25T00:29:29;1.50;99.90
49503;DHT22;35409;48.776;9.204;2022-11-25T00:31:54;1.40;99.90
49503;DHT22;35409;48.776;9.204;2022-11-25T00:34:20;1.40;99.90
49503;DHT22;35409;48.776;9.204;2022-11-25T00:36:45;1.40;99.90
49503;DHT22;35409;48.776;9.204;2022-11-25T00:39:16;1.30;99.90
49503;DHT22;35409;48.776;9.204;2022-11-25T00:41:43;1.30;99.90
49503;DHT22;35409;48.776;9.204;2022-11-25T09:32:03;6.10;99.90
49503;DHT22;35409;48.776;9.204;2022-11-25T09:34:29;6.20;99.90
49503;DHT22;35409;48.776;9.204;2022-11-25T09:36:54;6.20;99.90
49503;DHT22;35409;48.776;9.204;2022-11-25T09:39:20;6.20;99.90
49503;DHT22;35409;48.776;9.204;2022-11-25T09:44:44;6.40;99.90
49503;DHT22;35409;48.776;9.204;2022-11-25T09:47:47;6.50;99.90
49503;DHT22;35409;48.776;9.204;2022-11-25T09:55:43;6.90;99.90
49503;DHT22;35409;48.776;9.204;2022-11-25T10:00:50;7.30;99.90
49503;DHT22;35409;48.776;9.204;2022-11-25T10:03:31;7.20;99.90
49503;DHT22;35409;48.776;9.204;2022-11-25T10:06:25;7.20;99.90
49503;DHT22;35409;48.776;9.204;2022-11-25T10:08:55;7.30;99.90
49503;DHT22;35409;48.776;9.204;2022-11-25T10:14:17;7.50;99.90
49503;DHT22;35409;48.776;9.204;2022-11-25T10:16:50;7.60;99.90
49503;DHT22;35409;48.776;9.204;2022-11-25T10:19:42;7.60;99.90
49503;DHT22;35409;48.776;9.204;2022-11-25T10:22:25;7.60;99.90
49503;DHT22;35409;48.776;9.204;2022-11-25T10:24:55;7.70;99.90
49503;DHT22;35409;48.776;9.204;2022-11-25T10:30:23;7.80;99.90
49503;DHT22;35409;48.776;9.204;2022-11-25T10:32:53;7.90;99.90
49503;DHT22;35409;48.776;9.204;2022-11-25T10:35:48;8.10;99.90
49503;DHT22;35409;48.776;9.204;2022-11-25T10:38:37;8.20;99.90
49503;DHT22;35409;48.776;9.204;2022-11-25T10:41:04;8.50;99.90
49503;DHT22;35409;48.776;9.204;2022-11-25T10:43:30;8.70;99.90
49503;DHT22;35409;48.776;9.204;2022-11-25T10:48:58;9.10;99.90
49503;DHT22;35409;48.776;9.204;2022-11-25T10:51:42;9.30;99.90
49503;DHT22;35409;48.776;9.204;2022-11-25T10:54:21;9.20;99.90
49503;DHT22;35409;48.776;9.204;2022-11-25T10:56:51;9.10;99.90
49503;DHT22;35409;48.776;9.204;2022-11-25T10:59:24;9.10;99.90
49503;DHT22;35409;48.776;9.204;2022-11-25T11:01:51;9.00;99.90
49503;DHT22;35409;48.776;9.204;2022-11-25T11:04:17;9.00;99.90
49503;DHT22;35409;48.776;9.204;2022-11-25T11:06:47;8.90;99.90
49503;DHT22;35409;48.776;9.204;2022-11-25T11:09:32;8.80;99.90
49503;DHT22;35409;48.776;9.204;2022-11-25T11:12:19;8.70;99.90
49503;DHT22;35409;48.776;9.204;2022-11-25T11:14:45;8.70;99.90
49503;DHT22;35409;48.776;9.204;2022-11-25T11:22:33;8.60;99.90
49503;DHT22;35409;48.776;9.204;2022-11-25T11:25:13;8.60;99.90
49503;DHT22;35409;48.776;9.204;2022-11-25T11:27:46;8.60;99.90
49503;DHT22;35409;48.776;9.204;2022-11-25T11:30:22;8.60;99.90
49503;DHT22;35409;48.776;9.204;2022-11-25T11:33:28;8.50;99.90
49503;DHT22;35409;48.776;9.204;2022-11-25T11:36:26;8.40;99.90
49503;DHT22;35409;48.776;9.204;2022-11-25T11:41:59;8.50;99.90
49503;DHT22;35409;48.776;9.204;2022-11-25T11:44:34;8.30;99.90
49503;DHT22;35409;48.776;9.204;2022-11-25T11:47:29;8.30;99.90
49503;DHT22;35409;48.776;9.204;2022-11-25T11:52:57;8.00;99.90
49503;DHT22;35409;48.776;9.204;2022-11-25T12:03:47;7.70;99.90
49503;DHT22;35409;48.776;9.204;2022-11-25T12:06:19;7.70;99.90
49503;DHT22;35409;48.776;9.204;2022-11-25T12:08:51;7.60;99.90
49503;DHT22;35409;48.776;9.204;2022-11-25T12:11:25;7.50;99.90
49503;DHT22;35409;48.776;9.204;2022-11-25T12:14:09;7.50;99.90
49503;DHT22;35409;48.776;9.204;2022-11-25T12:16:43;7.50;99.90
49503;DHT22;35409;48.776;9.204;2022-11-25T12:19:14;7.40;99.90
49503;DHT22;35409;48.776;9.204;2022-11-25T12:22:16;7.40;99.90
49503;DHT22;35409;48.776;9.204;2022-11-25T12:24:55;7.40;99.90
49503;DHT22;35409;48.776;9.204;2022-11-25T12:27:41;7.40;99.90
49503;DHT22;35409;48.776;9.204;2022-11-25T12:30:14;7.40;99.90
49503;DHT22;35409;48.776;9.204;2022-11-25T12:33:04;7.40;99.90
49503;DHT22;35409;48.776;9.204;2022-11-25T12:36:01;7.40;99.90
49503;DHT22;35409;48.776;9.204;2022-11-25T12:41:27;7.60;99.90
49503;DHT22;35409;48.776;9.204;2022-11-25T12:44:08;7.60;99.90
49503;DHT22;35409;48.776;9.204;2022-11-25T12:46:48;7.70;99.90
49503;DHT22;35409;48.776;9.204;2022-11-25T12:49:24;7.80;99.90
49503;DHT22;35409;48.776;9.204;2022-11-25T12:58:18;7.80;99.90
49503;DHT22;35409;48.776;9.204;2022-11-25T13:03:59;7.90;99.90
49503;DHT22;35409;48.776;9.204;2022-11-25T13:15:11;7.90;99.90
49503;DHT22;35409;48.776;9.204;2022-11-25T13:18:15;7.80;99.90
49503;DHT22;35409;48.776;9.204;2022-11-25T13:20:45;7.80;99.90
49503;DHT22;35409;48.776;9.204;2022-11-25T13:25:39;7.80;99.90
49503;DHT22;35409;48.776;9.204;2022-11-25T13:28:35;7.80;99.90
49503;DHT22;35409;48.776;9.204;2022-11-25T13:36:21;7.80;99.90
49503;DHT22;35409;48.776;9.204;2022-11-25T13:44:20;8.00;99.90
49503;DHT22;35409;48.776;9.204;2022-11-25T13:46:51;8.00;99.90
49503;DHT22;35409;48.776;9.204;2022-11-25T13:54:39;8.10;99.90
49503;DHT22;35409;48.776;9.204;2022-11-25T13:59:51;8.30;99.90
49503;DHT22;35409;48.776;9.204;2022-11-25T14:10:52;8.50;99.90
49503;DHT22;35409;48.776;9.204;2022-11-25T14:16:01;8.50;99.90
49503;DHT22;35409;48.776;9.204;2022-11-25T14:21:43;8.70;99.90
49503;DHT22;35409;48.776;9.204;2022-11-25T14:26:58;8.90;99.90
49503;DHT22;35409;48.776;9.204;2022-11-25T14:29:35;9.10;99.90
49503;DHT22;35409;48.776;9.204;2022-11-25T14:34:43;9.10;99.90
49503;DHT22;35409;48.776;9.204;2022-11-25T14:37:15;9.10;99.90
49503;DHT22;35409;48.776;9.204;2022-11-25T14:40:03;9.00;99.90
49503;DHT22;35409;48.776;9.204;2022-11-25T14:42:40;9.10;99.90
49503;DHT22;35409;48.776;9.204;2022-11-25T14:45:25;9.10;99.90
49503;DHT22;35409;48.776;9.204;2022-11-25T14:47:50;9.10;99.90
49503;DHT22;35409;48.776;9.204;2022-11-25T14:50:16;9.10;99.90
49503;DHT22;35409;48.776;9.204;2022-11-25T14:52:43;9.00;99.90
49503;DHT22;35409;48.776;9.204;2022-11-25T14:55:11;9.00;99.90
49503;DHT22;35409;48.776;9.204;2022-11-25T14:57:42;9.00;99.90
49503;DHT22;35409;48.776;9.204;2022-11-25T15:00:11;9.00;99.90
49503;DHT22;35409;48.776;9.204;2022-11-25T15:02:50;9.00;99.90
49503;DHT22;35409;48.776;9.204;2022-11-25T15:05:18;9.00;99.90
49503;DHT22;35409;48.776;9.204;2022-11-25T15:07:56;8.90;99.90
49503;DHT22;35409;48.776;9.204;2022-11-25T15:10:30;8.90;99.90
49503;DHT22;35409;48.776;9.204;2022-11-25T15:12:57;8.90;99.90
49503;DHT22;35409;48.776;9.204;2022-11-25T15:15:25;8.90;99.90
49503;DHT22;35409;48.776;9.204;2022-11-25T15:17:52;8.80;99.90
49503;DHT22;35409;48.776;9.204;2022-11-25T15:20:20;8.70;99.90
49503;DHT22;35409;48.776;9.204;2022-11-25T15:22:49;8.60;99.90
49503;DHT22;35409;48.776;9.204;2022-11-25T15:25:16;8.50;99.90
49503;DHT22;35409;48.776;9.204;2022-11-25T15:27:52;8.50;99.90
49503;DHT22;35409;48.776;9.204;2022-11-25T15:30:23;8.40;99.90
49503;DHT22;35409;48.776;9.204;2022-11-25T15:32:50;8.40;99.90
49503;DHT22;35409;48.776;9.204;2022-11-25T15:35:18;8.30;99.90
49503;DHT22;35409;48.776;9.204;2022-11-25T15:37:45;8.30;99.90
49503;DHT22;35409;48.776;9.204;2022-11-25T15:40:37;8.30;99.90
49503;DHT22;35409;48.776;9.204;2022-11-25T15:43:22;8.30;99.90
49503;DHT22;35409;48.776;9.204;2022-11-25T15:45:50;8.30;99.90
49503;DHT22;35409;48.776;9.204;2022-11-25T15:48:24;8.20;99.90
49503;DHT22;35409;48.776;9.204;2022-11-25T15:50:51;8.20;99.90
49503;DHT22;35409;48.776;9.204;2022-11-25T15:53:22;8.20;99.90
49503;DHT22;35409;48.776;9.204;2022-11-25T15:55:49;8.20;99.90
49503;DHT22;35409;48.776;9.204;2022-11-25T15:58:20;8.10;99.90
49503;DHT22;35409;48.776;9.204;2022-11-25T16:01:22;8.10;99.90
49503;DHT22;35409;48.776;9.204;2022-11-25T16:03:49;8.10;99.90
49503;DHT22;35409;48.776;9.204;2022-11-25T16:06:23;8.00;99.90
49503;DHT22;35409;48.776;9.204;2022-11-25T16:09:00;8.00;99.90
49503;DHT22;35409;48.776;9.204;2022-11-25T16:11:28;7.90;99.90
49503;DHT22;35409;48.776;9.204;2022-11-25T16:14:23;7.90;99.90
49503;DHT22;35409;48.776;9.204;2022-11-25T16:16:51;7.90;99.90
49503;DHT22;35409;48.776;9.204;2022-11-25T16:19:19;7.90;99.90
49503;DHT22;35409;48.776;9.204;2022-11-25T16:21:52;7.90;99.90
49503;DHT22;35409;48.776;9.204;2022-11-25T16:24:48;7.90;99.90
49503;DHT22;35409;48.776;9.204;2022-11-25T16:27:18;7.90;99.90
49503;DHT22;35409;48.776;9.204;2022-11-25T16:29:49;7.90;99.90
49503;DHT22;35409;48.776;9.204;2022-11-25T16:32:17;7.80;99.90
49503;DHT22;35409;48.776;9.204;2022-11-25T16:34:43;7.80;99.90
49503;DHT22;35409;48.776;9.204;2022-11-25T16:37:09;7.80;99.90
49503;DHT22;35409;48.776;9.204;2022-11-25T16:39:35;7.80;99.90
49503;DHT22;35409;48.776;9.204;2022-11-25T16:42:03;7.80;99.90
49503;DHT22;35409;48.776;9.204;2022-11-25T16:44:30;7.70;99.90
49503;DHT22;35409;48.776;9.204;2022-11-25T16:46:57;7.70;99.90
49503;DHT22;35409;48.776;9.204;2022-11-25T16:49:23;7.70;99.90
49503;DHT22;35409;48.776;9.204;2022-11-25T16:51:50;7.70;99.90
49503;DHT22;35409;48.776;9.204;2022-11-25T16:54:17;7.70;99.90
49503;DHT22;35409;48.776;9.204;2022-11-25T16:56:44;7.70;99.90
49503;DHT22;35409;48.776;9.204;2022-11-25T16:59:39;7.70;99.90
49503;DHT22;35409;48.776;9.204;2022-11-25T17:02:20;7.60;99.90
49503;DHT22;35409;48.776;9.204;2022-11-25T17:04:47;7.60;99.90
49503;DHT22;35409;48.776;9.204;2022-11-25T17:07:14;7.60;99.90
49503;DHT22;35409;48.776;9.204;2022-11-25T17:09:41;7.50;99.90
49503;DHT22;35409;48.776;9.204;2022-11-25T17:12:16;7.50;99.90
49503;DHT22;35409;48.776;9.204;2022-11-25T17:14:44;7.50;99.90
49503;DHT22;35409;48.776;9.204;2022-11-25T17:17:14;7.50;99.90
49503;DHT22;35409;48.776;9.204;2022-11-25T17:19:42;7.50;99.90
49503;DHT22;35409;48.776;9.204;2022-11-25T17:22:20;7.40;99.90
49503;DHT22;35409;48.776;9.204;2022-11-25T17:24:46;7.40;99.90
49503;DHT22;35409;48.776;9.204;2022-11-25T17:27:21;7.40;99.90
49503;DHT22;35409;48.776;9.204;2022-11-25T17:29:48;7.40;99.90
49503;DHT22;35409;48.776;9.204;2022-11-25T17:32:14;7.30;99.90
49503;DHT22;35409;48.776;9.204;2022-11-25T17:34:40;7.40;99.90
49503;DHT22;35409;48.776;9.204;2022-11-25T17:37:22;7.40;99.90
49503;DHT22;35409;48.776;9.204;2022-11-25T17:39:49;7.40;99.90
49503;DHT22;35409;48.776;9.204;2022-11-25T17:42:18;7.50;99.90
49503;DHT22;35409;48.776;9.204;2022-11-25T17:44:46;7.40;99.90
49503;DHT22;35409;48.776;9.204;2022-11-25T17:47:14;7.50;99.90
49503;DHT22;35409;48.776;9.204;2022-11-25T17:49:40;7.50;99.90
49503;DHT22;35409;48.776;9.204;2022-11-25T17:52:06;7.50;99.90
49503;DHT22;35409;48.776;9.204;2022-11-25T17:54:32;7.50;99.90
49503;DHT22;35409;48.776;9.204;2022-11-25T17:56:58;7.50;99.90
49503;DHT22;35409;48.776;9.204;2022-11-25T17:59:29;7.50;99.90
49503;DHT22;35409;48.776;9.204;2022-11-25T18:01:55;7.50;99.90
49503;DHT22;35409;48.776;9.204;2022-11-25T18:04:31;7.50;99.90
49503;DHT22;35409;48.776;9.204;2022-11-25T18:06:59;7.50;99.90
49503;DHT22;35409;48.776;9.204;2022-11-25T18:09:24;7.40;99.90
49503;DHT22;35409;48.776;9.204;2022-11-25T18:11:53;7.30;99.90
49503;DHT22;35409;48.776;9.204;2022-11-25T18:14:26;7.30;99.90
49503;DHT22;35409;48.776;9.204;2022-11-25T18:16:52;7.20;99.90
49503;DHT22;35409;48.776;9.204;2022-11-25T18:19:19;7.10;99.90
49503;DHT22;35409;48.776;9.204;2022-11-25T18:21:44;7.00;99.90
49503;DHT22;35409;48.776;9.204;2022-11-25T18:24:10;7.00;99.90
49503;DHT22;35409;48.776;9.204;2022-11-25T18:26:43;6.90;99.90
49503;DHT22;35409;48.776;9.204;2022-11-25T18:29:23;6.90;99.90
49503;DHT22;35409;48.776;9.204;2022-11-25T18:31:50;6.90;99.90
49503;DHT22;35409;48.776;9.204;2022-11-25T18:34:17;6.90;99.90
49503;DHT22;35409;48.776;9.204;2022-11-25T18:36:43;7.00;99.90
49503;DHT22;35409;48.776;9.204;2022-11-25T18:39:10;7.00;99.90
49503;DHT22;35409;48.776;9.204;2022-11-25T18:41:36;7.00;99.90
49503;DHT22;35409;48.776;9.204;2022-11-25T18:44:03;7.10;99.90
49503;DHT22;35409;48.776;9.204;2022-11-25T18:46:35;7.10;99.90
49503;DHT22;35409;48.776;9.204;2022-11-25T18:49:11;7.10;99.90
49503;DHT22;35409;48.776;9.204;2022-11-25T18:51:38;7.10;99.90
49503;DHT22;35409;48.776;9.204;2022-11-25T18:54:03;7.20;99.90
49503;DHT22;35409;48.776;9.204;2022-11-25T18:56:29;7.20;99.90
49503;DHT22;35409;48.776;9.204;2022-11-25T18:58:54;7.20;99.90
49503;DHT22;35409;48.776;9.204;2022-11-25T19:01:24;7.20;99.90
49503;DHT22;35409;48.776;9.204;2022-11-25T19:03:50;7.20;99.90
49503;DHT22;35409;48.776;9.204;2022-11-25T19:06:16;7.20;99.90
49503;DHT22;35409;48.776;9.204;2022-11-25T19:08:42;7.20;99.90
49503;DHT22;35409;48.776;9.204;2022-11-25T19:11:22;7.10;99.90
49503;DHT22;35409;48.776;9.204;2022-11-25T19:13:50;7.10;99.90
49503;DHT22;35409;48.776;9.204;2022-11-25T19:16:20;7.10;99.90
49503;DHT22;35409;48.776;9.204;2022-11-25T19:18:47;7.00;99.90
49503;DHT22;35409;48.776;9.204;2022-11-25T19:21:14;6.90;99.90
49503;DHT22;35409;48.776;9.204;2022-11-25T19:23:41;6.90;99.90
49503;DHT22;35409;48.776;9.204;2022-11-25T19:26:20;6.80;99.90
49503;DHT22;35409;48.776;9.204;2022-11-25T19:28:50;6.80;99.90
49503;DHT22;35409;48.776;9.204;2022-11-25T19:31:19;6.80;99.90
49503;DHT22;35409;48.776;9.204;2022-11-25T19:33:47;6.80;99.90
49503;DHT22;35409;48.776;9.204;2022-11-25T19:36:24;6.80;99.90
49503;DHT22;35409;48.776;9.204;2022-11-25T19:38:50;6.80;99.90
49503;DHT22;35409;48.776;9.204;2022-11-25T19:41:15;6.90;99.90
49503;DHT22;35409;48.776;9.204;2022-11-25T19:43:41;6.90;99.90
49503;DHT22;35409;48.776;9.204;2022-11-25T19:48:46;6.90;99.90
49503;DHT22;35409;48.776;9.204;2022-11-25T19:51:12;6.90;99.90
49503;DHT22;35409;48.776;9.204;2022-11-25T19:53:37;6.90;99.90
49503;DHT22;35409;48.776;9.204;2022-11-25T19:56:03;6.90;99.90
49503;DHT22;35409;48.776;9.204;2022-11-25T19:58:30;6.90;99.90
49503;DHT22;35409;48.776;9.204;2022-11-25T20:01:01;6.90;99.90
49503;DHT22;35409;48.776;9.204;2022-11-25T20:03:29;6.90;99.90
49503;DHT22;35409;48.776;9.204;2022-11-25T20:05:55;6.90;99.90
49503;DHT22;35409;48.776;9.204;2022-11-25T20:08:26;6.90;99.90
49503;DHT22;35409;48.776;9.204;2022-11-25T20:10:52;6.90;99.90
49503;DHT22;35409;48.776;9.204;2022-11-25T20:13:18;7.00;99.90
49503;DHT22;35409;48.776;9.204;2022-11-25T20:15:45;7.00;99.90
49503;DHT22;35409;48.776;9.204;2022-11-25T20:18:19;7.00;99.90
49503;DHT22;35409;48.776;9.204;2022-11-25T20:20:48;7.00;99.90
49503;DHT22;35409;48.776;9.204;2022-11-25T20:23:33;6.90;99.90
49503;DHT22;35409;48.776;9.204;2022-11-25T20:25:59;6.90;99.90
49503;DHT22;35409;48.776;9.204;2022-11-25T20:28:27;6.90;99.90
49503;DHT22;35409;48.776;9.204;2022-11-25T20:30:55;6.90;99.90
49503;DHT22;35409;48.776;9.204;2022-11-25T20:33:24;7.00;99.90
49503;DHT22;35409;48.776;9.204;2022-11-25T20:35:51;7.00;99.90
49503;DHT22;35409;48.776;9.204;2022-11-25T20:38:21;6.90;99.90
49503;DHT22;35409;48.776;9.204;2022-11-25T20:40:52;6.90;99.90
49503;DHT22;35409;48.776;9.204;2022-11-25T20:43:36;6.90;99.90
49503;DHT22;35409;48.776;9.204;2022-11-25T20:46:04;6.90;99.90
49503;DHT22;35409;48.776;9.204;2022-11-25T20:48:31;6.90;99.90
49503;DHT22;35409;48.776;9.204;2022-11-25T20:51:00;6.90;99.90
49503;DHT22;35409;48.776;9.204;2022-11-25T20:53:27;6.90;99.90
49503;DHT22;35409;48.776;9.204;2022-11-25T20:55:54;6.90;99.90
49503;DHT22;35409;48.776;9.204;2022-11-25T20:58:23;6.90;99.90
49503;DHT22;35409;48.776;9.204;2022-11-25T21:00:50;6.90;99.90
49503;DHT22;35409;48.776;9.204;2022-11-25T21:03:16;6.80;99.90
49503;DHT22;35409;48.776;9.204;2022-11-25T21:05:42;6.70;99.90
49503;DHT22;35409;48.776;9.204;2022-11-25T21:08:12;6.70;99.90
49503;DHT22;35409;48.776;9.204;2022-11-25T21:10:40;6.60;99.90
49503;DHT22;35409;48.776;9.204;2022-11-25T21:13:17;6.60;99.90
49503;DHT22;35409;48.776;9.204;2022-11-25T21:15:43;6.50;99.90
49503;DHT22;35409;48.776;9.204;2022-11-25T21:18:10;6.50;99.90
49503;DHT22;35409;48.776;9.204;2022-11-25T21:20:36;6.50;99.90
49503;DHT22;35409;48.776;9.204;2022-11-25T21:23:02;6.50;99.90
49503;DHT22;35409;48.776;9.204;2022-11-25T21:25:32;6.50;99.90
49503;DHT22;35409;48.776;9.204;2022-11-25T21:27:58;6.40;99.90
49503;DHT22;35409;48.776;9.204;2022-11-25T21:30:26;6.40;99.90
49503;DHT22;35409;48.776;9.204;2022-11-25T21:32:57;6.40;99.90
49503;DHT22;35409;48.776;9.204;2022-11-25T21:35:29;6.30;99.90
49503;DHT22;35409;48.776;9.204;2022-11-25T21:37:57;6.30;99.90
49503;DHT22;35409;48.776;9.204;2022-11-25T21:40:36;6.30;99.90
49503;DHT22;35409;48.776;9.204;2022-11-25T21:43:03;6.30;99.90
49503;DHT22;35409;48.776;9.204;2022-11-25T21:45:30;6.20;99.90
49503;DHT22;35409;48.776;9.204;2022-11-25T21:47:55;6.20;99.90
49503;DHT22;35409;48.776;9.204;2022-11-25T21:50:21;6.10;99.90
49503;DHT22;35409;48.776;9.204;2022-11-25T21:52:48;6.10;99.90
49503;DHT22;35409;48.776;9.204;2022-11-25T21:55:15;6.10;99.90
49503;DHT22;35409;48.776;9.204;2022-11-25T21:57:41;6.10;99.90
49503;DHT22;35409;48.776;9.204;2022-11-25T22:00:27;6.10;99.90
49503;DHT22;35409;48.776;9.204;2022-11-25T22:02:53;6.20;99.90
49503;DHT22;35409;48.776;9.204;2022-11-25T22:05:21;6.10;99.90
49503;DHT22;35409;48.776;9.204;2022-11-25T22:07:46;6.10;99.90
49503;DHT22;35409;48.776;9.204;2022-11-25T22:10:14;6.10;99.90
49503;DHT22;35409;48.776;9.204;2022-11-25T22:12:42;6.00;99.90
49503;DHT22;35409;48.776;9.204;2022-11-25T22:15:14;6.00;99.90
49503;DHT22;35409;48.776;9.204;2022-11-25T22:17:41;5.90;99.90
49503;DHT22;35409;48.776;9.204;2022-11-25T22:22:43;5.80;99.90
49503;DHT22;35409;48.776;9.204;2022-11-25T22:25:11;5.80;99.90
49503;DHT22;35409;48.776;9.204;2022-11-25T22:27:37;5.80;99.90
49503;DHT22;35409;48.776;9.204;2022-11-25T22:30:04;5.70;99.90
49503;DHT22;35409;48.776;9.204;2022-11-25T22:32:30;5.70;99.90
49503;DHT22;35409;48.776;9.204;2022-11-25T22:34:55;5.70;99.90
49503;DHT22;35409;48.776;9.204;2022-11-25T22:37:22;5.70;99.90
49503;DHT22;35409;48.776;9.204;2022-11-25T22:39:49;5.60;99.90
49503;DHT22;35409;48.776;9.204;2022-11-25T22:42:26;5.70;99.90
49503;DHT22;35409;48.776;9.204;2022-11-25T22:44:54;5.70;99.90
49503;DHT22;35409;48.776;9.204;2022-11-25T22:47:41;5.70;99.90
49503;DHT22;35409;48.776;9.204;2022-11-25T22:50:33;5.80;99.90
49503;DHT22;35409;48.776;9.204;2022-11-25T22:53:24;5.80;99.90
49503;DHT22;35409;48.776;9.204;2022-11-25T22:55:51;5.80;99.90
49503;DHT22;35409;48.776;9.204;2022-11-25T22:58:21;5.80;99.90
49503;DHT22;35409;48.776;9.204;2022-11-25T23:00:47;5.80;99.90
49503;DHT22;35409;48.776;9.204;2022-11-25T23:03:21;5.90;99.90
49503;DHT22;35409;48.776;9.204;2022-11-25T23:05:49;5.90;99.90
49503;DHT22;35409;48.776;9.204;2022-11-25T23:08:33;5.90;99.90
49503;DHT22;35409;48.776;9.204;2022-11-25T23:10:59;6.00;99.90
49503;DHT22;35409;48.776;9.204;2022-11-25T23:13:25;6.00;99.90
49503;DHT22;35409;48.776;9.204;2022-11-25T23:18:26;6.00;99.90
49503;DHT22;35409;48.776;9.204;2022-11-25T23:20:52;6.00;99.90
49503;DHT22;35409;48.776;9.204;2022-11-25T23:23:24;6.00;99.90
49503;DHT22;35409;48.776;9.204;2022-11-25T23:25:52;6.00;99.90
49503;DHT22;35409;48.776;9.204;2022-11-25T23:28:18;5.90;99.90
49503;DHT22;35409;48.776;9.204;2022-11-25T23:30:47;5.80;99.90
49503;DHT22;35409;48.776;9.204;2022-11-25T23:33:35;5.80;99.90
49503;DHT22;35409;48.776;9.204;2022-11-25T23:36:17;5.70;99.90
49503;DHT22;35409;48.776;9.204;2022-11-25T23:38:58;5.60;99.90
49503;DHT22;35409;48.776;9.204;2022-11-25T23:41:32;5.50;99.90
49503;DHT22;35409;48.776;9.204;2022-11-25T23:44:28;5.50;99.90
49503;DHT22;35409;48.776;9.204;2022-11-25T23:47:00;5.50;99.90
49503;DHT22;35409;48.776;9.204;2022-11-25T23:49:35;5.40;99.90
49503;DHT22;35409;48.776;9.204;2022-11-25T23:52:02;5.40;99.90
49503;DHT22;35409;48.776;9.204;2022-11-25T23:54:41;5.40;99.90
49503;DHT22;35409;48.776;9.204;2022-11-25T23:57:30;5.30;99.90
49503;DHT22;35409;48.776;9.204;2022-11-25T23:59:56;5.30;99.90
